createdAt,value
2017-07-16T00:02:10.406Z,6.93
2017-07-16T00:04:39.944Z,5.07
2017-07-16T00:07:09.546Z,5.80
2017-07-16T00:09:39.071Z,7.72
2017-07-16T00:12:08.604Z,4.18
2017-07-16T00:14:38.182Z,6.12
2017-07-16T00:17:07.707Z,6.10
2017-07-16T00:19:37.247Z,14.55
2017-07-16T00:22:06.775Z,6.05
2017-07-16T00:24:36.466Z,5.55
2017-07-16T00:27:06.010Z,6.10
2017-07-16T00:29:35.542Z,4.72
2017-07-16T00:32:05.081Z,7.95
2017-07-16T00:34:34.623Z,7.22
2017-07-16T00:37:04.247Z,6.40
2017-07-16T00:39:33.781Z,5.80
2017-07-16T00:42:03.307Z,6.28
2017-07-16T00:44:32.849Z,5.40
2017-07-16T00:47:02.394Z,5.45
2017-07-16T00:49:31.927Z,6.15
2017-07-16T00:52:01.465Z,4.47
2017-07-16T00:54:31.008Z,6.43
2017-07-16T00:57:00.546Z,4.90
2017-07-16T00:59:30.061Z,9.48
2017-07-16T01:01:59.598Z,5.37
2017-07-16T01:04:29.135Z,10.02
2017-07-16T01:06:58.671Z,7.07
2017-07-16T01:09:28.231Z,5.00
2017-07-16T01:11:57.762Z,4.85
2017-07-16T01:14:27.285Z,7.22
2017-07-16T01:16:56.814Z,6.53
2017-07-16T01:19:26.373Z,12.18
2017-07-16T01:21:55.904Z,5.50
2017-07-16T01:24:25.451Z,6.47
2017-07-16T01:26:54.991Z,5.18
2017-07-16T01:29:24.522Z,6.00
2017-07-16T01:31:54.063Z,5.50
2017-07-16T01:34:23.595Z,7.72
2017-07-16T01:36:53.129Z,5.97
2017-07-16T01:39:22.675Z,6.43
2017-07-16T01:41:52.245Z,5.15
2017-07-16T01:44:21.774Z,6.80
2017-07-16T01:46:51.306Z,7.28
2017-07-16T01:49:20.914Z,9.07
2017-07-16T01:51:50.471Z,10.65
2017-07-16T01:54:20.019Z,5.62
2017-07-16T01:56:49.200Z,7.53
2017-07-16T01:59:18.735Z,8.32
2017-07-16T02:01:48.278Z,6.37
2017-07-16T02:04:17.817Z,8.95
2017-07-16T02:06:47.354Z,10.05
2017-07-16T02:09:16.913Z,7.40
2017-07-16T02:11:46.454Z,9.20
2017-07-16T02:14:15.969Z,9.23
2017-07-16T02:16:45.513Z,5.30
2017-07-16T02:19:15.037Z,5.40
2017-07-16T02:21:44.574Z,5.05
2017-07-16T02:24:14.105Z,6.62
2017-07-16T02:26:43.638Z,7.28
2017-07-16T02:29:13.169Z,7.80
2017-07-16T02:31:42.697Z,13.62
2017-07-16T02:34:12.233Z,7.65
2017-07-16T02:36:41.788Z,9.25
2017-07-16T02:39:11.316Z,6.15
2017-07-16T02:41:40.850Z,5.10
2017-07-16T02:44:10.472Z,5.30
2017-07-16T02:46:39.987Z,13.25
2017-07-16T02:49:09.515Z,6.87
2017-07-16T02:51:39.064Z,9.18
2017-07-16T02:54:08.596Z,4.00
2017-07-16T02:56:38.135Z,5.15
2017-07-16T02:59:07.714Z,10.63
2017-07-16T03:01:37.245Z,5.20
2017-07-16T03:04:06.778Z,6.32
2017-07-16T03:06:36.314Z,5.00
2017-07-16T03:09:05.844Z,4.53
2017-07-16T03:11:35.370Z,5.25
2017-07-16T03:14:04.909Z,5.60
2017-07-16T03:16:34.437Z,4.62
2017-07-16T03:19:03.982Z,7.37
2017-07-16T03:21:33.512Z,8.23
2017-07-16T03:24:03.070Z,6.18
2017-07-16T03:26:32.619Z,7.12
2017-07-16T03:29:01.971Z,6.25
2017-07-16T03:31:31.517Z,7.90
2017-07-16T03:34:01.049Z,8.32
2017-07-16T03:36:30.593Z,4.40
2017-07-16T03:39:00.116Z,5.95
2017-07-16T03:41:29.662Z,4.87
2017-07-16T03:43:59.205Z,7.68
2017-07-16T03:46:28.739Z,4.15
2017-07-16T03:48:58.279Z,6.60
2017-07-16T03:51:27.827Z,6.70
2017-07-16T03:53:57.353Z,8.30
2017-07-16T03:56:26.888Z,7.32
2017-07-16T03:58:56.428Z,47.85
2017-07-16T04:01:25.978Z,4.93
2017-07-16T04:03:55.501Z,5.30
2017-07-16T04:06:25.077Z,7.12
2017-07-16T04:08:54.614Z,4.95
2017-07-16T04:11:24.139Z,4.93
2017-07-16T04:13:53.668Z,6.20
2017-07-16T04:16:23.202Z,5.80
2017-07-16T04:18:52.734Z,7.28
2017-07-16T04:21:22.768Z,5.60
2017-07-16T04:23:52.305Z,5.65
2017-07-16T04:26:21.838Z,10.27
2017-07-16T04:28:52.311Z,4.72
2017-07-16T04:31:21.833Z,4.85
2017-07-16T04:33:51.390Z,4.25
2017-07-16T04:36:20.922Z,5.22
2017-07-16T04:38:50.446Z,6.12
2017-07-16T04:41:19.980Z,5.78
2017-07-16T04:43:49.527Z,4.68
2017-07-16T04:46:19.041Z,5.87
2017-07-16T04:48:48.585Z,14.35
2017-07-16T04:51:18.176Z,4.47
2017-07-16T04:53:47.990Z,5.22
2017-07-16T04:56:17.525Z,4.70
2017-07-16T04:58:47.954Z,6.32
2017-07-16T05:01:17.500Z,5.10
2017-07-16T05:03:47.031Z,5.10
2017-07-16T05:06:16.573Z,4.93
2017-07-16T05:08:46.176Z,6.57
2017-07-16T05:11:15.703Z,7.05
2017-07-16T05:13:45.249Z,5.40
2017-07-16T05:16:14.775Z,7.05
2017-07-16T05:18:44.305Z,4.72
2017-07-16T05:21:13.838Z,5.85
2017-07-16T05:23:43.406Z,6.43
2017-07-16T05:26:12.934Z,8.65
2017-07-16T05:28:42.473Z,6.80
2017-07-16T05:31:12.087Z,6.55
2017-07-16T05:33:41.629Z,7.97
2017-07-16T05:36:11.169Z,7.12
2017-07-16T05:38:40.693Z,7.95
2017-07-16T05:41:10.247Z,11.55
2017-07-16T05:43:39.788Z,6.85
2017-07-16T05:46:10.333Z,9.43
2017-07-16T05:48:39.856Z,7.97
2017-07-16T05:51:09.109Z,9.00
2017-07-16T05:53:38.649Z,6.60
2017-07-16T05:56:08.177Z,7.10
2017-07-16T05:58:37.449Z,7.63
2017-07-16T06:01:06.692Z,10.33
2017-07-16T06:03:35.932Z,6.13
2017-07-16T06:06:05.189Z,5.60
2017-07-16T06:08:34.439Z,6.03
2017-07-16T06:11:04.121Z,7.00
2017-07-16T06:13:33.381Z,6.33
2017-07-16T06:16:02.626Z,5.90
2017-07-16T06:18:32.173Z,7.03
2017-07-16T06:21:01.406Z,5.13
2017-07-16T06:23:30.656Z,5.83
2017-07-16T06:25:59.906Z,6.70
2017-07-16T06:28:29.185Z,7.53
2017-07-16T06:30:58.447Z,4.47
2017-07-16T06:33:27.694Z,6.60
2017-07-16T06:35:58.583Z,6.30
2017-07-16T06:38:27.809Z,7.30
2017-07-16T06:40:57.091Z,18.00
2017-07-16T06:43:26.333Z,8.63
2017-07-16T06:45:55.606Z,16.00
2017-07-16T06:48:24.852Z,14.37
2017-07-16T06:50:54.126Z,16.40
2017-07-16T06:53:23.384Z,14.93
2017-07-16T06:55:52.645Z,12.30
2017-07-16T06:58:21.886Z,11.90
2017-07-16T07:00:51.140Z,11.17
2017-07-16T07:03:20.389Z,13.90
2017-07-16T07:05:49.670Z,13.30
2017-07-16T07:08:18.910Z,12.87
2017-07-16T07:10:48.157Z,10.43
2017-07-16T07:13:17.437Z,14.70
2017-07-16T07:15:46.695Z,14.13
2017-07-16T07:18:15.935Z,16.30
2017-07-16T07:20:45.208Z,14.47
2017-07-16T07:23:14.283Z,15.00
2017-07-16T07:25:43.562Z,14.73
2017-07-16T07:28:12.800Z,16.10
2017-07-16T07:30:42.100Z,17.63
2017-07-16T07:33:11.375Z,15.50
2017-07-16T07:35:40.631Z,21.40
2017-07-16T07:38:09.913Z,15.90
2017-07-16T07:40:39.162Z,12.87
2017-07-16T07:43:08.437Z,13.33
2017-07-16T07:45:37.683Z,13.80
2017-07-16T07:48:07.009Z,11.70
2017-07-16T07:50:36.274Z,8.27
2017-07-16T07:53:05.526Z,5.93
2017-07-16T07:55:34.778Z,7.83
2017-07-16T07:58:04.049Z,9.77
2017-07-16T08:00:33.290Z,9.40
2017-07-16T08:03:02.579Z,11.10
2017-07-16T08:05:31.825Z,9.20
2017-07-16T08:08:01.086Z,9.00
2017-07-16T08:10:30.334Z,6.70
2017-07-16T08:12:59.583Z,8.90
2017-07-16T08:15:28.847Z,7.83
2017-07-16T08:17:58.082Z,8.50
2017-07-16T08:20:27.351Z,6.60
2017-07-16T08:22:56.594Z,7.33
2017-07-16T08:25:25.839Z,5.93
2017-07-16T08:27:55.114Z,6.20
2017-07-16T08:30:24.358Z,5.30
2017-07-16T08:32:53.623Z,12.50
2017-07-16T08:35:23.666Z,6.30
2017-07-16T08:37:52.926Z,6.03
2017-07-16T08:40:22.338Z,5.83
2017-07-16T08:42:51.578Z,7.27
2017-07-16T08:45:20.827Z,7.90
2017-07-16T08:47:50.097Z,6.60
2017-07-16T08:50:19.357Z,6.87
2017-07-16T08:52:48.595Z,6.63
2017-07-16T08:55:17.865Z,6.07
2017-07-16T08:57:47.100Z,7.03
2017-07-16T09:00:16.354Z,6.10
2017-07-16T09:02:45.594Z,5.80
2017-07-16T09:05:15.295Z,16.00
2017-07-16T09:07:44.577Z,17.60
2017-07-16T09:10:13.834Z,6.50
2017-07-16T09:12:43.094Z,8.23
2017-07-16T09:15:12.333Z,4.70
2017-07-16T09:17:41.607Z,5.07
2017-07-16T09:20:10.851Z,6.10
2017-07-16T09:22:40.094Z,7.23
2017-07-16T09:25:09.369Z,4.50
2017-07-16T09:27:38.606Z,4.63
2017-07-16T09:30:07.850Z,4.30
2017-07-16T09:32:37.091Z,4.23
2017-07-16T09:35:06.338Z,5.70
2017-07-16T09:37:35.590Z,4.17
2017-07-16T09:40:04.993Z,6.80
2017-07-16T09:42:34.235Z,4.50
2017-07-16T09:45:03.493Z,3.80
2017-07-16T09:47:32.770Z,6.60
2017-07-16T09:50:02.025Z,3.60
2017-07-16T09:52:31.272Z,4.80
2017-07-16T09:55:00.529Z,3.20
2017-07-16T09:57:29.773Z,3.10
2017-07-16T09:59:59.024Z,3.47
2017-07-16T10:02:28.259Z,3.93
2017-07-16T10:04:57.501Z,4.90
2017-07-16T10:07:26.773Z,3.17
2017-07-16T10:09:56.058Z,3.60
2017-07-16T10:12:25.422Z,3.20
2017-07-16T10:14:55.594Z,2.90
2017-07-16T10:17:24.849Z,3.67
2017-07-16T10:19:54.094Z,4.90
2017-07-16T10:22:23.325Z,4.67
2017-07-16T10:24:52.571Z,4.40
2017-07-16T10:27:21.823Z,4.30
2017-07-16T10:29:51.066Z,4.63
2017-07-16T10:32:20.341Z,3.47
2017-07-16T10:34:49.658Z,2.67
2017-07-16T10:37:18.891Z,2.60
2017-07-16T10:39:48.141Z,2.77
2017-07-16T10:42:17.419Z,4.03
2017-07-16T10:44:46.663Z,2.87
2017-07-16T10:47:15.917Z,2.23
2017-07-16T10:49:45.254Z,3.90
2017-07-16T10:52:14.511Z,2.70
2017-07-16T10:54:43.759Z,3.43
2017-07-16T10:57:13.041Z,2.80
2017-07-16T10:59:42.289Z,2.90
2017-07-16T11:02:11.544Z,3.47
2017-07-16T11:04:40.808Z,2.10
2017-07-16T11:07:10.043Z,2.50
2017-07-16T11:09:39.297Z,2.73
2017-07-16T11:12:08.555Z,3.30
2017-07-16T11:14:37.821Z,2.80
2017-07-16T11:17:07.093Z,2.93
2017-07-16T11:19:36.336Z,2.57
2017-07-16T11:22:05.581Z,6.00
2017-07-16T11:24:34.827Z,2.00
2017-07-16T11:27:04.084Z,2.47
2017-07-16T11:29:33.338Z,2.30
2017-07-16T11:32:02.591Z,1.80
2017-07-16T11:34:32.395Z,2.33
2017-07-16T11:37:01.654Z,2.10
2017-07-16T11:39:30.895Z,2.13
2017-07-16T11:42:00.877Z,1.97
2017-07-16T11:44:30.126Z,2.67
2017-07-16T11:46:59.378Z,2.80
2017-07-16T11:49:28.630Z,3.07
2017-07-16T11:51:57.882Z,2.20
2017-07-16T11:54:27.133Z,2.10
2017-07-16T11:56:56.431Z,1.93
2017-07-16T11:59:25.666Z,1.90
2017-07-16T12:01:54.937Z,1.70
2017-07-16T12:04:24.250Z,2.00
2017-07-16T12:06:53.536Z,2.30
2017-07-16T12:09:22.794Z,1.90
2017-07-16T12:11:52.042Z,1.80
2017-07-16T12:14:21.334Z,3.60
2017-07-16T12:16:50.573Z,1.87
2017-07-16T12:19:19.834Z,1.63
2017-07-16T12:21:49.094Z,1.87
2017-07-16T12:24:18.349Z,1.93
2017-07-16T12:26:47.737Z,5.93
2017-07-16T12:29:16.958Z,1.97
2017-07-16T12:31:46.225Z,1.83
2017-07-16T12:34:15.478Z,2.83
2017-07-16T12:36:44.723Z,4.93
2017-07-16T12:39:13.972Z,1.93
2017-07-16T12:41:43.233Z,2.00
2017-07-16T12:44:12.457Z,2.50
2017-07-16T12:46:41.703Z,2.80
2017-07-16T12:49:10.958Z,2.87
2017-07-16T12:51:40.261Z,2.40
2017-07-16T12:54:09.523Z,2.93
2017-07-16T12:56:38.449Z,2.10
2017-07-16T12:59:07.725Z,2.17
2017-07-16T13:01:36.965Z,2.23
2017-07-16T13:04:06.229Z,3.23
2017-07-16T13:06:35.465Z,2.80
2017-07-16T13:09:04.120Z,1.57
2017-07-16T13:11:33.372Z,1.50
2017-07-16T13:14:02.625Z,2.40
2017-07-16T13:16:31.874Z,2.20
2017-07-16T13:19:01.957Z,1.93
2017-07-16T13:21:31.214Z,1.63
2017-07-16T13:24:00.454Z,1.50
2017-07-16T13:26:29.736Z,1.53
2017-07-16T13:28:59.002Z,1.53
2017-07-16T13:31:28.254Z,1.70
2017-07-16T13:33:57.497Z,1.70
2017-07-16T13:36:26.736Z,2.30
2017-07-16T13:38:55.978Z,1.63
2017-07-16T13:41:25.253Z,1.23
2017-07-16T13:43:54.498Z,1.10
2017-07-16T13:46:23.741Z,1.40
2017-07-16T13:48:53.226Z,1.27
2017-07-16T13:51:22.676Z,1.30
2017-07-16T13:53:52.133Z,1.67
2017-07-16T13:56:21.576Z,2.20
2017-07-16T13:58:51.025Z,2.40
2017-07-16T14:01:20.492Z,1.73
2017-07-16T14:03:49.938Z,1.30
2017-07-16T14:06:19.378Z,1.43
2017-07-16T14:08:48.822Z,1.23
2017-07-16T14:11:18.279Z,1.23
2017-07-16T14:13:47.725Z,1.30
2017-07-16T14:16:17.180Z,1.50
2017-07-16T14:18:46.623Z,1.20
2017-07-16T14:21:16.061Z,1.50
2017-07-16T14:23:45.567Z,1.23
2017-07-16T14:26:15.018Z,1.20
2017-07-16T14:28:44.470Z,1.10
2017-07-16T14:31:13.948Z,1.50
2017-07-16T14:33:43.410Z,1.10
2017-07-16T14:36:12.848Z,1.20
2017-07-16T14:38:42.308Z,1.97
2017-07-16T14:41:11.817Z,2.00
2017-07-16T14:43:41.259Z,1.10
2017-07-16T14:46:10.718Z,1.00
2017-07-16T14:48:40.174Z,1.23
2017-07-16T14:51:09.630Z,1.60
2017-07-16T14:53:39.076Z,1.57
2017-07-16T14:56:08.518Z,2.77
2017-07-16T14:58:37.974Z,1.30
2017-07-16T15:01:07.459Z,2.00
2017-07-16T15:03:36.928Z,1.80
2017-07-16T15:06:06.375Z,1.90
2017-07-16T15:08:35.822Z,1.50
2017-07-16T15:11:05.269Z,2.07
2017-07-16T15:13:34.711Z,2.23
2017-07-16T15:16:04.154Z,1.53
2017-07-16T15:18:34.504Z,1.53
2017-07-16T15:21:03.977Z,2.20
2017-07-16T15:23:33.418Z,1.00
2017-07-16T15:26:02.850Z,1.37
2017-07-16T15:28:32.298Z,1.10
2017-07-16T15:31:01.754Z,1.83
2017-07-16T15:33:31.209Z,5.23
2017-07-16T15:36:00.668Z,1.40
2017-07-16T15:38:30.113Z,1.17
2017-07-16T15:40:59.558Z,4.23
2017-07-16T15:43:29.021Z,1.50
2017-07-16T15:45:58.482Z,1.30
2017-07-16T15:48:27.942Z,1.20
2017-07-16T15:50:57.374Z,1.40
2017-07-16T15:53:26.848Z,1.23
2017-07-16T15:55:56.289Z,1.80
2017-07-16T15:58:25.762Z,2.40
2017-07-16T16:00:55.215Z,1.20
2017-07-16T16:03:24.842Z,1.43
2017-07-16T16:05:54.314Z,1.30
2017-07-16T16:08:24.174Z,1.30
2017-07-16T16:10:53.626Z,1.20
2017-07-16T16:13:23.077Z,3.13
2017-07-16T16:15:52.573Z,4.00
2017-07-16T16:18:22.031Z,1.20
2017-07-16T16:20:51.477Z,1.33
2017-07-16T16:23:21.041Z,1.10
2017-07-16T16:25:50.523Z,1.33
2017-07-16T16:28:19.975Z,1.63
2017-07-16T16:30:49.422Z,1.80
2017-07-16T16:33:18.872Z,3.57
2017-07-16T16:35:48.321Z,1.83
2017-07-16T16:38:17.853Z,1.93
2017-07-16T16:40:47.294Z,1.43
2017-07-16T16:43:16.733Z,1.50
2017-07-16T16:45:46.275Z,6.07
2017-07-16T16:48:15.714Z,1.77
2017-07-16T16:50:45.146Z,1.30
2017-07-16T16:53:14.606Z,1.50
2017-07-16T16:55:44.045Z,1.97
2017-07-16T16:58:13.513Z,1.63
2017-07-16T17:00:42.986Z,1.20
2017-07-16T17:03:12.430Z,1.30
2017-07-16T17:05:41.900Z,1.37
2017-07-16T17:08:11.324Z,1.40
2017-07-16T17:10:40.779Z,1.40
2017-07-16T17:13:10.231Z,1.63
2017-07-16T17:15:39.684Z,1.07
2017-07-16T17:18:09.140Z,1.17
2017-07-16T17:20:38.602Z,1.37
2017-07-16T17:23:08.069Z,1.37
2017-07-16T17:25:37.548Z,1.40
2017-07-16T17:28:06.973Z,1.30
2017-07-16T17:30:36.431Z,1.43
2017-07-16T17:33:06.350Z,1.13
2017-07-16T17:35:35.794Z,1.67
2017-07-16T17:38:05.329Z,2.60
2017-07-16T17:40:34.795Z,2.07
2017-07-16T17:43:04.392Z,1.20
2017-07-16T17:45:33.837Z,2.30
2017-07-16T17:48:03.272Z,2.40
2017-07-16T17:50:32.723Z,1.70
2017-07-16T17:53:02.186Z,1.47
2017-07-16T17:55:31.633Z,1.70
2017-07-16T17:58:01.062Z,3.00
2017-07-16T18:00:30.541Z,1.33
2017-07-16T18:03:00.003Z,1.50
2017-07-16T18:05:29.457Z,2.30
2017-07-16T18:07:58.942Z,1.43
2017-07-16T18:10:28.406Z,1.30
2017-07-16T18:12:58.253Z,2.83
2017-07-16T18:15:27.799Z,2.73
2017-07-16T18:17:57.268Z,2.40
2017-07-16T18:20:26.713Z,2.23
2017-07-16T18:22:56.145Z,2.90
2017-07-16T18:25:25.593Z,2.97
2017-07-16T18:27:55.047Z,1.77
2017-07-16T18:30:24.484Z,2.03
2017-07-16T18:32:53.946Z,2.90
2017-07-16T18:35:23.398Z,1.67
2017-07-16T18:37:52.847Z,3.20
2017-07-16T18:40:22.300Z,2.47
2017-07-16T18:42:51.754Z,5.57
2017-07-16T18:45:21.307Z,4.17
2017-07-16T18:47:50.730Z,2.30
2017-07-16T18:50:20.176Z,6.07
2017-07-16T18:52:49.627Z,2.80
2017-07-16T18:55:19.080Z,3.27
2017-07-16T18:57:48.519Z,6.43
2017-07-16T19:00:17.978Z,7.53
2017-07-16T19:02:47.430Z,3.30
2017-07-16T19:05:17.139Z,11.27
2017-07-16T19:07:47.476Z,3.07
2017-07-16T19:10:16.921Z,5.00
2017-07-16T19:12:46.363Z,2.60
2017-07-16T19:15:15.816Z,3.90
2017-07-16T19:17:45.260Z,5.10
2017-07-16T19:20:14.714Z,5.70
2017-07-16T19:22:44.199Z,6.60
2017-07-16T19:25:13.646Z,5.40
2017-07-16T19:27:43.347Z,3.80
2017-07-16T19:30:12.822Z,5.20
2017-07-16T19:32:42.261Z,6.17
2017-07-16T19:35:11.790Z,4.87
2017-07-16T19:37:41.297Z,5.97
2017-07-16T19:40:10.740Z,4.77
2017-07-16T19:42:40.182Z,3.30
2017-07-16T19:45:09.638Z,4.53
2017-07-16T19:47:39.097Z,3.73
2017-07-16T19:50:08.540Z,3.50
2017-07-16T19:52:38.954Z,3.27
2017-07-16T19:55:08.417Z,6.73
2017-07-16T19:57:37.847Z,3.50
2017-07-16T20:00:07.296Z,3.27
2017-07-16T20:02:36.597Z,7.30
2017-07-16T20:05:06.056Z,4.07
2017-07-16T20:07:35.514Z,2.37
2017-07-16T20:10:04.966Z,2.40
2017-07-16T20:12:34.423Z,3.50
2017-07-16T20:15:03.885Z,3.57
2017-07-16T20:17:33.224Z,4.87
2017-07-16T20:20:02.678Z,4.40
2017-07-16T20:22:32.129Z,2.83
2017-07-16T20:25:01.567Z,2.97
2017-07-16T20:27:31.019Z,7.93
2017-07-16T20:30:00.470Z,4.90
2017-07-16T20:32:29.914Z,3.23
2017-07-16T20:34:59.368Z,4.40
2017-07-16T20:37:28.817Z,3.00
2017-07-16T20:39:58.275Z,2.90
2017-07-16T20:42:27.718Z,2.63
2017-07-16T20:44:57.202Z,2.33
2017-07-16T20:47:26.655Z,2.73
2017-07-16T20:49:56.092Z,4.00
2017-07-16T20:52:25.542Z,6.50
2017-07-16T20:54:55.008Z,4.70
2017-07-16T20:57:24.446Z,2.73
2017-07-16T20:59:53.914Z,9.20
2017-07-16T21:02:23.359Z,5.10
2017-07-16T21:04:52.820Z,4.20
2017-07-16T21:07:22.268Z,5.20
2017-07-16T21:09:51.714Z,4.80
2017-07-16T21:12:21.175Z,3.77
2017-07-16T21:14:50.622Z,6.23
2017-07-16T21:17:20.062Z,4.50
2017-07-16T21:19:49.516Z,3.60
2017-07-16T21:22:18.985Z,2.60
2017-07-16T21:24:48.469Z,8.23
2017-07-16T21:27:17.926Z,4.03
2017-07-16T21:29:47.477Z,7.27
2017-07-16T21:32:16.909Z,5.57
2017-07-16T21:34:46.363Z,2.60
2017-07-16T21:37:15.797Z,2.60
2017-07-16T21:39:45.242Z,2.90
2017-07-16T21:42:14.985Z,4.10
2017-07-16T21:44:44.437Z,4.47
2017-07-16T21:47:13.945Z,3.90
2017-07-16T21:49:43.413Z,4.60
2017-07-16T21:52:12.978Z,3.65
2017-07-16T21:54:42.703Z,3.50
2017-07-16T21:57:12.446Z,2.92
2017-07-16T21:59:41.914Z,4.77
2017-07-16T22:02:11.646Z,2.70
2017-07-16T22:04:41.377Z,3.97
2017-07-16T22:07:11.118Z,3.40
2017-07-16T22:09:40.870Z,3.65
2017-07-16T22:12:10.593Z,2.60
2017-07-16T22:14:40.330Z,3.15
2017-07-16T22:17:10.081Z,2.92
2017-07-16T22:19:39.817Z,3.12
2017-07-16T22:22:09.567Z,2.80
2017-07-16T22:24:39.305Z,4.37
2017-07-16T22:27:09.030Z,3.33
2017-07-16T22:29:38.766Z,3.85
2017-07-16T22:32:08.521Z,2.97
2017-07-16T22:34:38.272Z,3.55
2017-07-16T22:37:07.988Z,2.60
2017-07-16T22:39:37.837Z,2.90
2017-07-16T22:42:08.358Z,4.60
2017-07-16T22:44:38.125Z,2.40
2017-07-16T22:47:07.865Z,3.03
2017-07-16T22:49:37.664Z,2.75
2017-07-16T22:52:07.617Z,4.97
2017-07-16T22:54:37.353Z,4.75
2017-07-16T22:57:07.107Z,3.70
2017-07-16T22:59:36.834Z,3.20
2017-07-16T23:02:06.605Z,2.70
2017-07-16T23:04:36.342Z,3.97
2017-07-16T23:07:06.107Z,2.75
2017-07-16T23:09:35.854Z,3.47
2017-07-16T23:12:05.572Z,3.62
2017-07-16T23:14:35.313Z,4.37
2017-07-16T23:17:05.034Z,3.45
2017-07-16T23:19:34.782Z,3.12
2017-07-16T23:22:04.525Z,2.87
2017-07-16T23:24:34.114Z,3.00
2017-07-16T23:27:03.876Z,3.80
2017-07-16T23:29:33.610Z,5.65
2017-07-16T23:32:03.336Z,9.95
2017-07-16T23:34:33.086Z,3.30
2017-07-16T23:37:02.813Z,4.30
2017-07-16T23:39:32.560Z,3.53
2017-07-16T23:42:02.346Z,3.25
2017-07-16T23:44:32.097Z,3.22
2017-07-16T23:47:01.824Z,2.85
2017-07-16T23:49:31.565Z,3.30
2017-07-16T23:52:01.321Z,3.05
2017-07-16T23:54:31.062Z,3.30
2017-07-16T23:57:00.789Z,3.15
2017-07-16T23:59:30.523Z,2.62
